sensor_id;sensor_type;location;lat;lon;timestamp;pressure;altitude;pressure_sealevel;temperature;humidity
76024;BME280;64719;52.124;6.226;2023-08-07T00:01:34;101305.75;;;13.72;100.00
76024;BME280;64719;52.124;6.226;2023-08-07T00:04:01;101312.50;;;13.70;100.00
76024;BME280;64719;52.124;6.226;2023-08-07T00:06:27;101310.59;;;13.70;100.00
76024;BME280;64719;52.124;6.226;2023-08-07T00:08:54;101299.69;;;13.70;100.00
76024;BME280;64719;52.124;6.226;2023-08-07T00:11:20;101304.06;;;13.71;100.00
76024;BME280;64719;52.124;6.226;2023-08-07T00:13:47;101303.16;;;13.66;100.00
76024;BME280;64719;52.124;6.226;2023-08-07T00:16:14;101296.63;;;13.67;100.00
76024;BME280;64719;52.124;6.226;2023-08-07T00:18:42;101303.75;;;13.68;100.00
76024;BME280;64719;52.124;6.226;2023-08-07T00:21:08;101299.94;;;13.69;100.00
76024;BME280;64719;52.124;6.226;2023-08-07T00:23:35;101297.09;;;13.64;100.00
76024;BME280;64719;52.124;6.226;2023-08-07T00:26:01;101299.34;;;13.67;100.00
76024;BME280;64719;52.124;6.226;2023-08-07T00:28:28;101298.28;;;13.68;100.00
76024;BME280;64719;52.124;6.226;2023-08-07T00:30:55;101296.38;;;13.68;100.00
76024;BME280;64719;52.124;6.226;2023-08-07T00:33:21;101295.31;;;13.69;100.00
76024;BME280;64719;52.124;6.226;2023-08-07T00:35:49;101304.06;;;13.71;100.00
76024;BME280;64719;52.124;6.226;2023-08-07T00:38:16;101304.91;;;13.72;100.00
76024;BME280;64719;52.124;6.226;2023-08-07T00:40:42;101307.63;;;13.72;100.00
76024;BME280;64719;52.124;6.226;2023-08-07T00:43:09;101310.97;;;13.74;100.00
76024;BME280;64719;52.124;6.226;2023-08-07T00:45:40;101304.31;;;13.70;100.00
76024;BME280;64719;52.124;6.226;2023-08-07T00:48:07;101309.53;;;13.71;100.00
76024;BME280;64719;52.124;6.226;2023-08-07T00:50:34;101307.41;;;13.73;100.00
76024;BME280;64719;52.124;6.226;2023-08-07T00:53:02;101308.00;;;13.75;100.00
76024;BME280;64719;52.124;6.226;2023-08-07T00:55:29;101308.56;;;13.77;100.00
76024;BME280;64719;52.124;6.226;2023-08-07T00:57:56;101317.34;;;13.79;100.00
76024;BME280;64719;52.124;6.226;2023-08-07T01:00:25;101309.75;;;13.81;100.00
76024;BME280;64719;52.124;6.226;2023-08-07T01:02:52;101319.34;;;13.84;100.00
76024;BME280;64719;52.124;6.226;2023-08-07T01:05:20;101318.25;;;13.85;100.00
76024;BME280;64719;52.124;6.226;2023-08-07T01:07:47;101321.94;;;13.90;100.00
76024;BME280;64719;52.124;6.226;2023-08-07T01:10:18;101321.72;;;13.92;100.00
76024;BME280;64719;52.124;6.226;2023-08-07T01:12:51;101322.44;;;13.87;100.00
76024;BME280;64719;52.124;6.226;2023-08-07T01:15:23;101329.53;;;13.88;100.00
76024;BME280;64719;52.124;6.226;2023-08-07T01:17:53;101319.94;;;13.86;100.00
76024;BME280;64719;52.124;6.226;2023-08-07T01:20:20;101333.91;;;13.89;100.00
76024;BME280;64719;52.124;6.226;2023-08-07T01:22:48;101334.63;;;13.85;100.00
76024;BME280;64719;52.124;6.226;2023-08-07T01:25:15;101336.31;;;13.86;100.00
76024;BME280;64719;52.124;6.226;2023-08-07T01:27:44;101328.84;;;13.81;100.00
76024;BME280;64719;52.124;6.226;2023-08-07T01:30:17;101342.13;;;13.78;100.00
76024;BME280;64719;52.124;6.226;2023-08-07T01:32:53;101338.56;;;13.77;100.00
76024;BME280;64719;52.124;6.226;2023-08-07T01:35:22;101336.81;;;13.71;100.00
76024;BME280;64719;52.124;6.226;2023-08-07T01:37:53;101322.91;;;13.73;100.00
76024;BME280;64719;52.124;6.226;2023-08-07T01:40:21;101333.97;;;13.66;100.00
76024;BME280;64719;52.124;6.226;2023-08-07T01:42:49;101332.31;;;13.65;100.00
76024;BME280;64719;52.124;6.226;2023-08-07T01:45:22;101331.97;;;13.62;100.00
76024;BME280;64719;52.124;6.226;2023-08-07T01:47:49;101325.00;;;13.54;100.00
76024;BME280;64719;52.124;6.226;2023-08-07T01:50:16;101340.16;;;13.50;100.00
76024;BME280;64719;52.124;6.226;2023-08-07T01:52:42;101345.03;;;13.48;100.00
76024;BME280;64719;52.124;6.226;2023-08-07T01:55:10;101339.81;;;13.47;100.00
76024;BME280;64719;52.124;6.226;2023-08-07T01:57:37;101339.47;;;13.43;100.00
76024;BME280;64719;52.124;6.226;2023-08-07T02:00:04;101341.72;;;13.46;100.00
76024;BME280;64719;52.124;6.226;2023-08-07T02:02:31;101347.88;;;13.42;100.00
76024;BME280;64719;52.124;6.226;2023-08-07T02:04:58;101350.59;;;13.42;100.00
76024;BME280;64719;52.124;6.226;2023-08-07T02:07:24;101364.00;;;13.43;100.00
76024;BME280;64719;52.124;6.226;2023-08-07T02:09:51;101353.09;;;13.43;100.00
76024;BME280;64719;52.124;6.226;2023-08-07T02:12:19;101360.09;;;13.39;100.00
76024;BME280;64719;52.124;6.226;2023-08-07T02:14:45;101357.47;;;13.44;100.00
76024;BME280;64719;52.124;6.226;2023-08-07T02:17:12;101358.78;;;13.42;100.00
76024;BME280;64719;52.124;6.226;2023-08-07T02:19:38;101359.63;;;13.42;100.00
76024;BME280;64719;52.124;6.226;2023-08-07T02:22:05;101364.84;;;13.44;100.00
76024;BME280;64719;52.124;6.226;2023-08-07T02:24:32;101368.75;;;13.48;100.00
76024;BME280;64719;52.124;6.226;2023-08-07T02:26:58;101374.56;;;13.51;100.00
76024;BME280;64719;52.124;6.226;2023-08-07T02:29:26;101371.34;;;13.54;100.00
76024;BME280;64719;52.124;6.226;2023-08-07T02:31:53;101364.69;;;13.50;100.00
76024;BME280;64719;52.124;6.226;2023-08-07T02:34:19;101376.91;;;13.59;100.00
76024;BME280;64719;52.124;6.226;2023-08-07T02:36:46;101367.91;;;13.59;100.00
76024;BME280;64719;52.124;6.226;2023-08-07T02:39:13;101372.53;;;13.58;100.00
76024;BME280;64719;52.124;6.226;2023-08-07T02:41:40;101358.88;;;13.58;100.00
76024;BME280;64719;52.124;6.226;2023-08-07T02:44:07;101363.41;;;13.53;100.00
76024;BME280;64719;52.124;6.226;2023-08-07T02:46:35;101363.88;;;13.50;100.00
76024;BME280;64719;52.124;6.226;2023-08-07T02:49:02;101360.91;;;13.51;100.00
76024;BME280;64719;52.124;6.226;2023-08-07T02:51:29;101362.69;;;13.46;100.00
76024;BME280;64719;52.124;6.226;2023-08-07T02:53:55;101358.06;;;13.46;100.00
76024;BME280;64719;52.124;6.226;2023-08-07T02:56:22;101359.47;;;13.49;100.00
76024;BME280;64719;52.124;6.226;2023-08-07T02:58:48;101355.09;;;13.48;100.00
76024;BME280;64719;52.124;6.226;2023-08-07T03:01:15;101354.25;;;13.47;100.00
76024;BME280;64719;52.124;6.226;2023-08-07T03:03:43;101353.44;;;13.47;100.00
76024;BME280;64719;52.124;6.226;2023-08-07T03:06:10;101351.06;;;13.50;100.00
76024;BME280;64719;52.124;6.226;2023-08-07T03:08:36;101346.31;;;13.46;100.00
76024;BME280;64719;52.124;6.226;2023-08-07T03:11:03;101357.47;;;13.44;100.00
76024;BME280;64719;52.124;6.226;2023-08-07T03:13:29;101359.38;;;13.44;100.00
76024;BME280;64719;52.124;6.226;2023-08-07T03:15:59;101356.91;;;13.42;100.00
76024;BME280;64719;52.124;6.226;2023-08-07T03:18:26;101355.81;;;13.43;100.00
76024;BME280;64719;52.124;6.226;2023-08-07T03:20:54;101350.72;;;13.47;100.00
76024;BME280;64719;52.124;6.226;2023-08-07T03:23:21;101345.50;;;13.45;100.00
76024;BME280;64719;52.124;6.226;2023-08-07T03:25:48;101338.03;;;13.41;100.00
76024;BME280;64719;52.124;6.226;2023-08-07T03:28:14;101333.63;;;13.40;100.00
76024;BME280;64719;52.124;6.226;2023-08-07T03:30:41;101324.91;;;13.38;100.00
76024;BME280;64719;52.124;6.226;2023-08-07T03:33:07;101328.91;;;13.35;100.00
76024;BME280;64719;52.124;6.226;2023-08-07T03:35:34;101338.41;;;13.33;100.00
76024;BME280;64719;52.124;6.226;2023-08-07T03:38:02;101344.09;;;13.31;100.00
76024;BME280;64719;52.124;6.226;2023-08-07T03:40:28;101343.84;;;13.33;100.00
76024;BME280;64719;52.124;6.226;2023-08-07T03:42:55;101341.50;;;13.36;100.00
76024;BME280;64719;52.124;6.226;2023-08-07T03:45:21;101341.72;;;13.35;100.00
76024;BME280;64719;52.124;6.226;2023-08-07T03:47:48;101337.69;;;13.37;100.00
76024;BME280;64719;52.124;6.226;2023-08-07T03:50:15;101351.06;;;13.39;100.00
76024;BME280;64719;52.124;6.226;2023-08-07T03:52:41;101343.59;;;13.46;100.00
76024;BME280;64719;52.124;6.226;2023-08-07T03:55:09;101336.72;;;13.43;100.00
76024;BME280;64719;52.124;6.226;2023-08-07T03:57:36;101342.78;;;13.45;100.00
76024;BME280;64719;52.124;6.226;2023-08-07T04:00:03;101339.22;;;13.45;100.00
76024;BME280;64719;52.124;6.226;2023-08-07T04:02:30;101327.72;;;13.43;100.00
76024;BME280;64719;52.124;6.226;2023-08-07T04:04:56;101333.16;;;13.43;100.00
76024;BME280;64719;52.124;6.226;2023-08-07T04:07:23;101323.34;;;13.42;100.00
76024;BME280;64719;52.124;6.226;2023-08-07T04:09:49;101325.00;;;13.43;100.00
76024;BME280;64719;52.124;6.226;2023-08-07T04:12:17;101328.56;;;13.43;100.00
76024;BME280;64719;52.124;6.226;2023-08-07T04:14:44;101328.31;;;13.45;100.00
76024;BME280;64719;52.124;6.226;2023-08-07T04:17:10;101335.41;;;13.46;100.00
76024;BME280;64719;52.124;6.226;2023-08-07T04:19:37;101337.66;;;13.49;100.00
76024;BME280;64719;52.124;6.226;2023-08-07T04:22:04;101339.59;;;13.48;100.00
76024;BME280;64719;52.124;6.226;2023-08-07T04:24:30;101342.31;;;13.48;100.00
76024;BME280;64719;52.124;6.226;2023-08-07T04:26:57;101343.72;;;13.51;100.00
76024;BME280;64719;52.124;6.226;2023-08-07T04:29:25;101349.16;;;13.51;100.00
76024;BME280;64719;52.124;6.226;2023-08-07T04:31:52;101350.09;;;13.56;100.00
76024;BME280;64719;52.124;6.226;2023-08-07T04:34:18;101347.03;;;13.53;100.00
76024;BME280;64719;52.124;6.226;2023-08-07T04:36:45;101350.72;;;13.58;100.00
76024;BME280;64719;52.124;6.226;2023-08-07T04:39:11;101356.53;;;13.62;100.00
76024;BME280;64719;52.124;6.226;2023-08-07T04:41:39;101350.00;;;13.63;100.00
76024;BME280;64719;52.124;6.226;2023-08-07T04:44:06;101357.22;;;13.69;100.00
76024;BME280;64719;52.124;6.226;2023-08-07T04:46:33;101364.31;;;13.70;100.00
76024;BME280;64719;52.124;6.226;2023-08-07T04:49:00;101363.03;;;13.72;100.00
76024;BME280;64719;52.124;6.226;2023-08-07T04:51:27;101362.53;;;13.75;100.00
76024;BME280;64719;52.124;6.226;2023-08-07T04:53:53;101367.63;;;13.83;100.00
76024;BME280;64719;52.124;6.226;2023-08-07T04:56:22;101363.25;;;13.82;100.00
76024;BME280;64719;52.124;6.226;2023-08-07T04:58:48;101359.31;;;13.90;100.00
76024;BME280;64719;52.124;6.226;2023-08-07T05:01:15;101371.38;;;13.94;100.00
76024;BME280;64719;52.124;6.226;2023-08-07T05:03:43;101370.91;;;13.97;100.00
76024;BME280;64719;52.124;6.226;2023-08-07T05:06:09;101377.56;;;14.01;100.00
76024;BME280;64719;52.124;6.226;2023-08-07T05:08:36;101372.91;;;14.01;100.00
76024;BME280;64719;52.124;6.226;2023-08-07T05:11:02;101380.38;;;14.06;100.00
76024;BME280;64719;52.124;6.226;2023-08-07T05:13:29;101391.16;;;14.12;100.00
76024;BME280;64719;52.124;6.226;2023-08-07T05:15:56;101395.56;;;14.13;100.00
76024;BME280;64719;52.124;6.226;2023-08-07T05:18:22;101388.19;;;14.14;100.00
76024;BME280;64719;52.124;6.226;2023-08-07T05:20:50;101394.13;;;14.22;100.00
76024;BME280;64719;52.124;6.226;2023-08-07T05:23:17;101398.53;;;14.23;100.00
76024;BME280;64719;52.124;6.226;2023-08-07T05:25:45;101406.84;;;14.28;100.00
76024;BME280;64719;52.124;6.226;2023-08-07T05:28:11;101411.56;;;14.21;100.00
76024;BME280;64719;52.124;6.226;2023-08-07T05:30:38;101402.66;;;14.26;100.00
76024;BME280;64719;52.124;6.226;2023-08-07T05:33:04;101409.81;;;14.27;100.00
76024;BME280;64719;52.124;6.226;2023-08-07T05:35:31;101423.78;;;14.30;100.00
76024;BME280;64719;52.124;6.226;2023-08-07T05:37:59;101420.97;;;14.25;100.00
76024;BME280;64719;52.124;6.226;2023-08-07T05:40:26;101420.09;;;14.36;100.00
76024;BME280;64719;52.124;6.226;2023-08-07T05:42:52;101416.69;;;14.29;100.00
76024;BME280;64719;52.124;6.226;2023-08-07T05:45:19;101422.16;;;14.18;100.00
76024;BME280;64719;52.124;6.226;2023-08-07T05:47:45;101426.19;;;14.27;100.00
76024;BME280;64719;52.124;6.226;2023-08-07T05:50:12;101436.84;;;14.17;100.00
76024;BME280;64719;52.124;6.226;2023-08-07T05:52:38;101435.19;;;14.16;100.00
76024;BME280;64719;52.124;6.226;2023-08-07T05:55:07;101431.28;;;14.23;100.00
76024;BME280;64719;52.124;6.226;2023-08-07T05:57:34;101441.00;;;14.31;100.00
76024;BME280;64719;52.124;6.226;2023-08-07T06:00:00;101442.41;;;14.33;100.00
76024;BME280;64719;52.124;6.226;2023-08-07T06:02:27;101440.66;;;14.16;100.00
76024;BME280;64719;52.124;6.226;2023-08-07T06:04:54;101450.72;;;14.15;100.00
76024;BME280;64719;52.124;6.226;2023-08-07T06:07:20;101465.47;;;14.14;100.00
76024;BME280;64719;52.124;6.226;2023-08-07T06:09:47;101471.50;;;14.16;100.00
76024;BME280;64719;52.124;6.226;2023-08-07T06:12:15;101473.03;;;14.12;100.00
76024;BME280;64719;52.124;6.226;2023-08-07T06:14:41;101486.56;;;14.19;100.00
76024;BME280;64719;52.124;6.226;2023-08-07T06:17:08;101470.91;;;14.14;100.00
76024;BME280;64719;52.124;6.226;2023-08-07T06:19:35;101464.06;;;14.12;100.00
76024;BME280;64719;52.124;6.226;2023-08-07T06:22:01;101476.38;;;14.14;100.00
76024;BME280;64719;52.124;6.226;2023-08-07T06:24:28;101471.28;;;14.18;100.00
76024;BME280;64719;52.124;6.226;2023-08-07T06:26:54;101468.91;;;14.33;100.00
76024;BME280;64719;52.124;6.226;2023-08-07T06:29:22;101473.47;;;14.44;100.00
76024;BME280;64719;52.124;6.226;2023-08-07T06:31:49;101485.25;;;14.44;100.00
76024;BME280;64719;52.124;6.226;2023-08-07T06:34:15;101480.31;;;14.30;100.00
76024;BME280;64719;52.124;6.226;2023-08-07T06:36:42;101484.19;;;14.34;100.00
76024;BME280;64719;52.124;6.226;2023-08-07T06:39:09;101501.78;;;14.26;100.00
76024;BME280;64719;52.124;6.226;2023-08-07T06:41:37;101500.22;;;14.19;100.00
76024;BME280;64719;52.124;6.226;2023-08-07T06:44:04;101499.84;;;14.15;100.00
76024;BME280;64719;52.124;6.226;2023-08-07T06:46:32;101503.44;;;14.16;100.00
76024;BME280;64719;52.124;6.226;2023-08-07T06:48:59;101502.13;;;14.07;100.00
76024;BME280;64719;52.124;6.226;2023-08-07T06:51:25;101508.16;;;14.09;100.00
76024;BME280;64719;52.124;6.226;2023-08-07T06:53:52;101506.16;;;14.16;100.00
76024;BME280;64719;52.124;6.226;2023-08-07T06:56:18;101509.50;;;14.29;100.00
76024;BME280;64719;52.124;6.226;2023-08-07T06:58:45;101510.91;;;14.32;100.00
76024;BME280;64719;52.124;6.226;2023-08-07T07:01:12;101512.91;;;14.36;100.00
76024;BME280;64719;52.124;6.226;2023-08-07T07:03:40;101511.72;;;14.44;100.00
76024;BME280;64719;52.124;6.226;2023-08-07T07:06:06;101519.56;;;14.29;100.00
76024;BME280;64719;52.124;6.226;2023-08-07T07:08:33;101520.06;;;14.26;100.00
76024;BME280;64719;52.124;6.226;2023-08-07T07:11:00;101523.84;;;14.36;100.00
76024;BME280;64719;52.124;6.226;2023-08-07T07:13:26;101522.88;;;14.54;100.00
76024;BME280;64719;52.124;6.226;2023-08-07T07:15:53;101529.88;;;14.90;100.00
76024;BME280;64719;52.124;6.226;2023-08-07T07:18:20;101527.94;;;15.02;100.00
76024;BME280;64719;52.124;6.226;2023-08-07T07:20:48;101526.41;;;14.94;100.00
76024;BME280;64719;52.124;6.226;2023-08-07T07:23:17;101523.53;;;15.29;100.00
76024;BME280;64719;52.124;6.226;2023-08-07T07:25:44;101525.16;;;15.30;100.00
76024;BME280;64719;52.124;6.226;2023-08-07T07:28:10;101521.56;;;16.07;100.00
76024;BME280;64719;52.124;6.226;2023-08-07T07:30:38;101520.91;;;16.55;100.00
76024;BME280;64719;52.124;6.226;2023-08-07T07:33:05;101518.44;;;15.98;100.00
76024;BME280;64719;52.124;6.226;2023-08-07T07:35:32;101517.41;;;16.21;100.00
76024;BME280;64719;52.124;6.226;2023-08-07T07:38:02;101523.09;;;16.74;100.00
76024;BME280;64719;52.124;6.226;2023-08-07T07:40:28;101522.44;;;16.89;100.00
76024;BME280;64719;52.124;6.226;2023-08-07T07:42:55;101518.91;;;16.93;100.00
76024;BME280;64719;52.124;6.226;2023-08-07T07:45:21;101514.75;;;17.39;100.00
76024;BME280;64719;52.124;6.226;2023-08-07T07:47:48;101524.22;;;18.26;100.00
76024;BME280;64719;52.124;6.226;2023-08-07T07:50:14;101519.13;;;17.98;100.00
76024;BME280;64719;52.124;6.226;2023-08-07T07:52:41;101530.25;;;18.18;100.00
76024;BME280;64719;52.124;6.226;2023-08-07T07:55:10;101534.66;;;17.51;100.00
76024;BME280;64719;52.124;6.226;2023-08-07T07:57:38;101537.34;;;17.46;100.00
76024;BME280;64719;52.124;6.226;2023-08-07T08:00:07;101544.66;;;17.40;100.00
76024;BME280;64719;52.124;6.226;2023-08-07T08:02:35;101542.34;;;17.27;100.00
76024;BME280;64719;52.124;6.226;2023-08-07T08:05:02;101537.44;;;18.29;100.00
76024;BME280;64719;52.124;6.226;2023-08-07T08:07:29;101534.13;;;19.55;100.00
76024;BME280;64719;52.124;6.226;2023-08-07T08:09:57;101545.69;;;22.46;100.00
76024;BME280;64719;52.124;6.226;2023-08-07T08:12:25;101540.59;;;22.81;100.00
76024;BME280;64719;52.124;6.226;2023-08-07T08:14:52;101539.25;;;22.55;100.00
76024;BME280;64719;52.124;6.226;2023-08-07T08:17:18;101539.25;;;20.52;100.00
76024;BME280;64719;52.124;6.226;2023-08-07T08:19:45;101535.97;;;21.96;100.00
76024;BME280;64719;52.124;6.226;2023-08-07T08:22:11;101540.88;;;22.04;100.00
76024;BME280;64719;52.124;6.226;2023-08-07T08:24:38;101553.66;;;20.19;100.00
76024;BME280;64719;52.124;6.226;2023-08-07T08:27:05;101546.97;;;22.01;100.00
76024;BME280;64719;52.124;6.226;2023-08-07T08:29:33;101554.16;;;25.13;100.00
76024;BME280;64719;52.124;6.226;2023-08-07T08:32:00;101548.31;;;24.73;100.00
76024;BME280;64719;52.124;6.226;2023-08-07T08:34:27;101545.03;;;23.24;100.00
76024;BME280;64719;52.124;6.226;2023-08-07T08:36:53;101547.75;;;23.80;100.00
76024;BME280;64719;52.124;6.226;2023-08-07T08:39:20;101546.78;;;22.21;100.00
76024;BME280;64719;52.124;6.226;2023-08-07T08:41:46;101543.81;;;21.84;100.00
76024;BME280;64719;52.124;6.226;2023-08-07T08:44:14;101536.97;;;22.34;100.00
76024;BME280;64719;52.124;6.226;2023-08-07T08:46:44;101568.78;;;22.08;100.00
76024;BME280;64719;52.124;6.226;2023-08-07T08:49:15;101563.09;;;21.94;100.00
76024;BME280;64719;52.124;6.226;2023-08-07T08:51:44;101562.03;;;19.02;100.00
76024;BME280;64719;52.124;6.226;2023-08-07T08:54:11;101590.25;;;20.75;100.00
76024;BME280;64719;52.124;6.226;2023-08-07T08:56:38;101583.13;;;23.88;100.00
76024;BME280;64719;52.124;6.226;2023-08-07T08:59:05;101570.81;;;23.20;100.00
76024;BME280;64719;52.124;6.226;2023-08-07T09:01:32;101567.16;;;24.31;100.00
76024;BME280;64719;52.124;6.226;2023-08-07T09:04:00;101587.03;;;23.69;100.00
76024;BME280;64719;52.124;6.226;2023-08-07T09:06:31;101579.53;;;24.52;100.00
76024;BME280;64719;52.124;6.226;2023-08-07T09:08:58;101579.16;;;24.26;100.00
76024;BME280;64719;52.124;6.226;2023-08-07T09:11:25;101580.84;;;23.58;100.00
76024;BME280;64719;52.124;6.226;2023-08-07T09:13:54;101573.63;;;22.96;100.00
76024;BME280;64719;52.124;6.226;2023-08-07T09:16:22;101584.69;;;22.73;100.00
76024;BME280;64719;52.124;6.226;2023-08-07T09:18:50;101575.16;;;25.90;100.00
76024;BME280;64719;52.124;6.226;2023-08-07T09:21:19;101589.22;;;23.53;100.00
76024;BME280;64719;52.124;6.226;2023-08-07T09:23:45;101587.88;;;22.61;100.00
76024;BME280;64719;52.124;6.226;2023-08-07T09:26:12;101584.34;;;24.01;100.00
76024;BME280;64719;52.124;6.226;2023-08-07T09:28:38;101583.94;;;21.77;100.00
76024;BME280;64719;52.124;6.226;2023-08-07T09:31:06;101591.81;;;21.01;100.00
76024;BME280;64719;52.124;6.226;2023-08-07T09:33:34;101592.41;;;19.27;100.00
76024;BME280;64719;52.124;6.226;2023-08-07T09:36:02;101608.91;;;19.27;100.00
76024;BME280;64719;52.124;6.226;2023-08-07T09:38:30;101603.16;;;19.29;100.00
76024;BME280;64719;52.124;6.226;2023-08-07T09:40:58;101616.59;;;18.69;100.00
76024;BME280;64719;52.124;6.226;2023-08-07T09:43:25;101614.88;;;19.09;100.00
76024;BME280;64719;52.124;6.226;2023-08-07T09:45:52;101621.44;;;19.85;100.00
76024;BME280;64719;52.124;6.226;2023-08-07T09:48:23;101620.47;;;21.10;100.00
76024;BME280;64719;52.124;6.226;2023-08-07T09:50:50;101620.53;;;23.54;100.00
76024;BME280;64719;52.124;6.226;2023-08-07T09:53:16;101619.84;;;24.63;100.00
76024;BME280;64719;52.124;6.226;2023-08-07T09:55:45;101622.63;;;24.17;100.00
76024;BME280;64719;52.124;6.226;2023-08-07T09:58:12;101628.38;;;23.84;100.00
76024;BME280;64719;52.124;6.226;2023-08-07T10:00:39;101618.75;;;24.77;99.50
76024;BME280;64719;52.124;6.226;2023-08-07T10:03:06;101630.06;;;24.35;100.00
76024;BME280;64719;52.124;6.226;2023-08-07T10:05:33;101616.63;;;24.56;90.46
76024;BME280;64719;52.124;6.226;2023-08-07T10:08:00;101625.50;;;26.02;88.94
76024;BME280;64719;52.124;6.226;2023-08-07T10:10:27;101629.38;;;22.33;100.00
76024;BME280;64719;52.124;6.226;2023-08-07T10:12:55;101628.56;;;21.99;100.00
76024;BME280;64719;52.124;6.226;2023-08-07T10:15:23;101632.75;;;24.86;84.54
76024;BME280;64719;52.124;6.226;2023-08-07T10:17:50;101632.66;;;23.76;79.35
76024;BME280;64719;52.124;6.226;2023-08-07T10:20:17;101643.56;;;24.42;81.80
76024;BME280;64719;52.124;6.226;2023-08-07T10:22:44;101634.84;;;22.38;91.68
76024;BME280;64719;52.124;6.226;2023-08-07T10:25:11;101639.84;;;23.40;85.11
76024;BME280;64719;52.124;6.226;2023-08-07T10:27:40;101641.31;;;23.32;88.58
76024;BME280;64719;52.124;6.226;2023-08-07T10:30:17;101647.25;;;25.10;78.29
76024;BME280;64719;52.124;6.226;2023-08-07T10:32:46;101636.50;;;26.07;65.53
76024;BME280;64719;52.124;6.226;2023-08-07T10:35:23;101643.84;;;25.89;61.24
76024;BME280;64719;52.124;6.226;2023-08-07T10:37:51;101636.31;;;26.25;68.86
76024;BME280;64719;52.124;6.226;2023-08-07T10:40:18;101642.19;;;24.39;67.10
76024;BME280;64719;52.124;6.226;2023-08-07T10:42:56;101644.91;;;23.09;81.98
76024;BME280;64719;52.124;6.226;2023-08-07T10:45:26;101644.25;;;24.34;75.77
76024;BME280;64719;52.124;6.226;2023-08-07T10:47:57;101641.19;;;25.84;62.08
76024;BME280;64719;52.124;6.226;2023-08-07T10:50:28;101649.22;;;25.50;63.84
76024;BME280;64719;52.124;6.226;2023-08-07T10:52:55;101645.41;;;22.64;81.96
76024;BME280;64719;52.124;6.226;2023-08-07T10:55:22;101643.38;;;22.41;90.78
76024;BME280;64719;52.124;6.226;2023-08-07T10:57:49;101649.84;;;23.97;83.20
76024;BME280;64719;52.124;6.226;2023-08-07T11:00:17;101650.88;;;23.82;80.29
76024;BME280;64719;52.124;6.226;2023-08-07T11:02:47;101667.59;;;23.96;96.12
76024;BME280;64719;52.124;6.226;2023-08-07T11:05:15;101670.31;;;22.31;95.32
76024;BME280;64719;52.124;6.226;2023-08-07T11:07:42;101662.59;;;21.40;95.61
76024;BME280;64719;52.124;6.226;2023-08-07T11:10:13;101666.34;;;22.42;96.04
76024;BME280;64719;52.124;6.226;2023-08-07T11:12:40;101649.59;;;22.62;87.30
76024;BME280;64719;52.124;6.226;2023-08-07T11:15:12;101673.84;;;21.54;100.00
76024;BME280;64719;52.124;6.226;2023-08-07T11:17:39;101670.28;;;20.60;100.00
76024;BME280;64719;52.124;6.226;2023-08-07T11:20:09;101672.00;;;22.27;100.00
76024;BME280;64719;52.124;6.226;2023-08-07T11:22:38;101671.53;;;23.71;82.72
76024;BME280;64719;52.124;6.226;2023-08-07T11:25:06;101675.50;;;24.71;72.43
76024;BME280;64719;52.124;6.226;2023-08-07T11:27:37;101669.56;;;21.82;94.85
76024;BME280;64719;52.124;6.226;2023-08-07T11:30:04;101664.47;;;24.02;92.20
76024;BME280;64719;52.124;6.226;2023-08-07T11:32:31;101662.72;;;22.46;92.73
76024;BME280;64719;52.124;6.226;2023-08-07T11:34:58;101678.44;;;21.15;100.00
76024;BME280;64719;52.124;6.226;2023-08-07T11:37:26;101664.72;;;20.05;100.00
76024;BME280;64719;52.124;6.226;2023-08-07T11:40:00;101660.00;;;20.80;100.00
76024;BME280;64719;52.124;6.226;2023-08-07T11:42:27;101667.94;;;21.12;100.00
76024;BME280;64719;52.124;6.226;2023-08-07T11:44:53;101667.13;;;22.76;100.00
76024;BME280;64719;52.124;6.226;2023-08-07T11:47:20;101668.31;;;24.38;74.79
76024;BME280;64719;52.124;6.226;2023-08-07T11:49:47;101663.28;;;25.54;65.44
76024;BME280;64719;52.124;6.226;2023-08-07T11:52:14;101659.91;;;24.89;75.75
76024;BME280;64719;52.124;6.226;2023-08-07T11:54:46;101665.13;;;27.04;60.66
76024;BME280;64719;52.124;6.226;2023-08-07T11:57:16;101658.00;;;21.69;84.86
76024;BME280;64719;52.124;6.226;2023-08-07T11:59:47;101665.66;;;23.12;93.38
76024;BME280;64719;52.124;6.226;2023-08-07T12:02:14;101663.59;;;23.22;81.67
76024;BME280;64719;52.124;6.226;2023-08-07T12:04:41;101675.84;;;24.51;67.55
76024;BME280;64719;52.124;6.226;2023-08-07T12:07:08;101674.38;;;22.72;78.42
76024;BME280;64719;52.124;6.226;2023-08-07T12:09:36;101687.56;;;21.10;100.00
76024;BME280;64719;52.124;6.226;2023-08-07T12:12:06;101686.03;;;21.43;100.00
76024;BME280;64719;52.124;6.226;2023-08-07T12:14:33;101666.50;;;22.60;97.27
76024;BME280;64719;52.124;6.226;2023-08-07T12:17:01;101673.53;;;20.82;100.00
76024;BME280;64719;52.124;6.226;2023-08-07T12:19:35;101696.25;;;21.47;100.00
76024;BME280;64719;52.124;6.226;2023-08-07T12:22:02;101681.31;;;24.06;89.09
76024;BME280;64719;52.124;6.226;2023-08-07T12:24:29;101687.81;;;21.83;100.00
76024;BME280;64719;52.124;6.226;2023-08-07T12:26:56;101688.66;;;22.55;100.00
76024;BME280;64719;52.124;6.226;2023-08-07T12:29:23;101683.59;;;24.36;91.14
76024;BME280;64719;52.124;6.226;2023-08-07T12:31:54;101678.94;;;24.63;80.54
76024;BME280;64719;52.124;6.226;2023-08-07T12:34:21;101678.69;;;24.14;78.64
76024;BME280;64719;52.124;6.226;2023-08-07T12:36:47;101689.31;;;24.58;77.50
76024;BME280;64719;52.124;6.226;2023-08-07T12:39:14;101673.09;;;26.44;67.91
76024;BME280;64719;52.124;6.226;2023-08-07T12:41:41;101684.59;;;28.42;57.68